Time,TemperatureF,DewpointF,PressureIn,WindDirection,WindDirectionDegrees,WindSpeedMPH,WindSpeedGustMPH,Humidity,HourlyPrecipIn,Conditions,Clouds,dailyrainin,SolarRadiationWatts/m^2,SoftwareType,DateUTC
2013-11-22 00:02:00,37.0,36.0,-100.00,ENE,61,5.0,8.0,98,0.03,,,0.19,0.000000,,2013-11-22 07:02:00,
2013-11-22 00:12:00,37.0,36.0,-100.00,ENE,61,5.0,8.0,98,0.03,,,0.19,0.000000,,2013-11-22 07:12:00,
2013-11-22 00:42:00,37.0,37.0,-100.00,NE,50,7.0,11.0,99,0.03,,,0.22,0.000000,,2013-11-22 07:42:00,
2013-11-22 00:52:00,37.0,37.0,-100.00,NE,50,7.0,11.0,99,0.03,,,0.22,0.000000,,2013-11-22 07:52:00,
2013-11-22 01:01:00,37.0,37.0,-100.00,NE,50,7.0,11.0,99,0.03,,,0.22,0.000000,,2013-11-22 08:01:00,
2013-11-22 01:11:00,37.0,37.0,-100.00,NE,50,7.0,11.0,99,0.03,,,0.22,0.000000,,2013-11-22 08:11:00,
2013-11-22 01:42:00,37.0,37.0,-100.00,NE,52,8.0,12.0,100,0.04,,,0.26,0.000000,,2013-11-22 08:42:00,
2013-11-22 01:52:00,37.0,37.0,-100.00,NE,52,8.0,12.0,100,0.04,,,0.26,0.000000,,2013-11-22 08:52:00,
2013-11-22 02:02:00,37.0,37.0,-100.00,NE,52,8.0,12.0,100,0.04,,,0.26,0.000000,,2013-11-22 09:02:00,
2013-11-22 02:11:00,37.0,37.0,-100.00,NE,52,8.0,12.0,100,0.04,,,0.26,0.000000,,2013-11-22 09:11:00,
2013-11-22 02:43:00,37.0,37.0,-100.00,ENE,75,8.0,14.0,100,0.04,,,0.30,0.000000,,2013-11-22 09:43:00,
2013-11-22 02:53:00,37.0,37.0,-100.00,ENE,75,8.0,14.0,100,0.04,,,0.30,0.000000,,2013-11-22 09:53:00,
2013-11-22 03:03:00,37.0,37.0,-100.00,ENE,75,8.0,14.0,100,0.04,,,0.30,0.000000,,2013-11-22 10:03:00,
2013-11-22 03:13:00,37.0,37.0,-100.00,ENE,75,8.0,14.0,100,0.04,,,0.30,0.000000,,2013-11-22 10:13:00,
2013-11-22 03:43:00,32.0,32.0,-100.00,ENE,59,14.0,22.0,98,0.03,,,0.33,0.000000,,2013-11-22 10:43:00,
2013-11-22 03:52:00,32.0,32.0,-100.00,ENE,59,14.0,22.0,98,0.03,,,0.33,0.000000,,2013-11-22 10:52:00,
2013-11-22 04:02:00,32.0,32.0,-100.00,ENE,59,14.0,22.0,98,0.03,,,0.33,0.000000,,2013-11-22 11:02:00,
2013-11-22 04:12:00,32.0,32.0,-100.00,ENE,59,14.0,22.0,98,0.03,,,0.33,0.000000,,2013-11-22 11:12:00,
2013-11-22 04:43:00,31.0,31.0,-100.00,ENE,58,17.0,25.0,99,0.00,,,-99.99,0.000000,,2013-11-22 11:43:00,
2013-11-22 04:52:00,31.0,31.0,-100.00,ENE,58,17.0,25.0,99,0.00,,,-99.99,0.000000,,2013-11-22 11:52:00,
2013-11-22 05:02:00,31.0,31.0,-100.00,ENE,58,17.0,25.0,99,0.00,,,-99.99,0.000000,,2013-11-22 12:02:00,
2013-11-22 05:12:00,31.0,31.0,-100.00,ENE,58,17.0,25.0,99,0.00,,,-99.99,0.000000,,2013-11-22 12:12:00,
2013-11-22 05:42:00,30.0,30.0,-100.00,ENE,62,13.0,25.0,99,0.00,,,0.33,0.000000,,2013-11-22 12:42:00,
2013-11-22 05:52:00,30.0,30.0,-100.00,ENE,62,13.0,25.0,99,0.00,,,0.33,0.000000,,2013-11-22 12:52:00,
2013-11-22 06:01:00,30.0,30.0,-100.00,ENE,62,13.0,25.0,99,0.00,,,0.33,0.000000,,2013-11-22 13:01:00,
2013-11-22 06:11:00,30.0,30.0,-100.00,ENE,62,13.0,25.0,99,0.00,,,0.33,0.000000,,2013-11-22 13:11:00,
2013-11-22 06:52:00,29.0,29.0,-100.00,ENE,58,8.0,19.0,99,0.00,,,0.33,0.000000,,2013-11-22 13:52:00,
2013-11-22 07:02:00,29.0,29.0,-100.00,ENE,58,8.0,19.0,99,0.00,,,0.33,0.000000,,2013-11-22 14:02:00,
2013-11-22 07:11:00,29.0,29.0,-100.00,ENE,58,8.0,19.0,99,0.00,,,0.33,0.000000,,2013-11-22 14:11:00,
2013-11-22 07:42:00,28.0,28.0,-100.00,ENE,60,13.0,20.0,99,0.00,,,0.33,0.000000,,2013-11-22 14:42:00,
2013-11-22 07:52:00,28.0,28.0,-100.00,ENE,60,13.0,20.0,99,0.00,,,0.33,0.000000,,2013-11-22 14:52:00,
2013-11-22 08:02:00,28.0,28.0,-100.00,ENE,60,13.0,20.0,99,0.00,,,0.33,0.000000,,2013-11-22 15:02:00,
2013-11-22 08:11:00,28.0,28.0,-100.00,ENE,60,13.0,20.0,99,0.00,,,0.33,0.000000,,2013-11-22 15:11:00,
2013-11-22 08:44:00,28.0,28.0,-100.00,ENE,59,12.0,21.0,98,0.00,,,-99.99,12.000000,,2013-11-22 15:44:00,
2013-11-22 08:54:00,28.0,28.0,-100.00,ENE,59,12.0,21.0,98,0.00,,,-99.99,12.000000,,2013-11-22 15:54:00,
2013-11-22 09:03:00,28.0,28.0,-100.00,ENE,59,12.0,21.0,98,0.00,,,-99.99,12.000000,,2013-11-22 16:03:00,
2013-11-22 09:13:00,28.0,28.0,-100.00,ENE,59,12.0,21.0,98,0.00,,,-99.99,12.000000,,2013-11-22 16:13:00,
2013-11-22 09:44:00,28.0,28.0,-100.00,NE,54,9.0,20.0,98,0.00,,,0.33,30.000000,,2013-11-22 16:44:00,
2013-11-22 09:53:00,28.0,28.0,-100.00,NE,54,9.0,20.0,98,0.00,,,0.33,30.000000,,2013-11-22 16:53:00,
2013-11-22 10:03:00,28.0,28.0,-100.00,NE,54,9.0,20.0,98,0.00,,,0.33,30.000000,,2013-11-22 17:03:00,
2013-11-22 10:12:00,28.0,28.0,-100.00,NE,54,9.0,20.0,98,0.00,,,0.33,30.000000,,2013-11-22 17:12:00,
2013-11-22 10:42:00,29.0,29.0,-100.00,ENE,64,6.0,14.0,98,0.00,,,0.32,56.000000,,2013-11-22 17:42:00,
2013-11-22 10:52:00,29.0,29.0,-100.00,ENE,64,6.0,14.0,98,0.00,,,0.32,56.000000,,2013-11-22 17:52:00,
2013-11-22 11:02:00,29.0,29.0,-100.00,ENE,64,6.0,14.0,98,0.00,,,0.32,56.000000,,2013-11-22 18:02:00,
2013-11-22 11:12:00,29.0,29.0,-100.00,ENE,64,6.0,14.0,98,0.00,,,0.32,56.000000,,2013-11-22 18:12:00,
2013-11-22 11:42:00,29.0,29.0,-100.00,NE,38,4.0,13.0,98,0.00,,,0.32,78.000000,,2013-11-22 18:42:00,
2013-11-22 11:52:00,29.0,29.0,-100.00,NE,38,4.0,13.0,98,0.00,,,0.32,78.000000,,2013-11-22 18:52:00,
2013-11-22 12:01:00,29.0,29.0,-100.00,NE,38,4.0,13.0,98,0.00,,,0.32,78.000000,,2013-11-22 19:01:00,
2013-11-22 12:11:00,29.0,29.0,-100.00,NE,38,4.0,13.0,98,0.00,,,0.32,78.000000,,2013-11-22 19:11:00,
2013-11-22 12:42:00,31.0,30.0,-100.00,NE,52,8.0,13.0,96,0.00,,,0.32,109.000000,,2013-11-22 19:42:00,
2013-11-22 12:52:00,31.0,30.0,-100.00,NE,52,8.0,13.0,96,0.00,,,0.32,109.000000,,2013-11-22 19:52:00,
2013-11-22 13:01:00,31.0,30.0,-100.00,NE,52,8.0,13.0,96,0.00,,,0.32,109.000000,,2013-11-22 20:01:00,
2013-11-22 13:11:00,31.0,30.0,-100.00,NE,52,8.0,13.0,96,0.00,,,0.32,109.000000,,2013-11-22 20:11:00,
2013-11-22 13:42:00,31.0,30.0,-100.00,NE,51,10.0,18.0,96,0.00,,,0.32,174.000000,,2013-11-22 20:42:00,
2013-11-22 13:52:00,31.0,30.0,-100.00,NE,51,10.0,18.0,96,0.00,,,0.32,174.000000,,2013-11-22 20:52:00,
2013-11-22 14:02:00,31.0,30.0,-100.00,NE,51,10.0,18.0,96,0.00,,,0.32,174.000000,,2013-11-22 21:02:00,
2013-11-22 14:11:00,31.0,30.0,-100.00,NE,51,10.0,18.0,96,0.00,,,0.32,174.000000,,2013-11-22 21:11:00,
2013-11-22 14:43:00,30.0,29.0,-100.00,ENE,66,6.0,15.0,98,0.00,,,0.32,119.000000,,2013-11-22 21:43:00,
2013-11-22 14:53:00,30.0,29.0,-100.00,ENE,66,6.0,15.0,98,0.00,,,0.32,119.000000,,2013-11-22 21:53:00,
2013-11-22 15:03:00,30.0,29.0,-100.00,ENE,66,6.0,15.0,98,0.00,,,0.32,119.000000,,2013-11-22 22:03:00,
2013-11-22 15:13:00,30.0,29.0,-100.00,ENE,66,6.0,15.0,98,0.00,,,0.32,119.000000,,2013-11-22 22:13:00,
2013-11-22 15:42:00,30.0,29.0,-100.00,NE,50,7.0,16.0,98,0.00,,,0.27,121.000000,,2013-11-22 22:42:00,
2013-11-22 15:53:00,30.0,29.0,-100.00,NE,50,7.0,16.0,98,0.00,,,0.27,121.000000,,2013-11-22 22:53:00,
2013-11-22 16:02:00,30.0,29.0,-100.00,NE,50,7.0,16.0,98,0.00,,,0.27,121.000000,,2013-11-22 23:02:00,
2013-11-22 16:12:00,30.0,29.0,-100.00,NE,50,7.0,16.0,98,0.00,,,0.27,121.000000,,2013-11-22 23:12:00,
2013-11-22 16:42:00,30.0,29.0,-100.00,NE,52,5.0,10.0,98,0.00,,,0.27,44.000000,,2013-11-22 23:42:00,
2013-11-22 16:53:00,30.0,29.0,-100.00,NE,52,5.0,10.0,98,0.00,,,0.27,44.000000,,2013-11-22 23:53:00,
2013-11-22 17:02:00,30.0,29.0,-100.00,NE,52,5.0,10.0,98,0.00,,,0.27,44.000000,,2013-11-23 00:02:00,
2013-11-22 17:11:00,30.0,29.0,-100.00,NE,52,5.0,10.0,98,0.00,,,0.27,44.000000,,2013-11-23 00:11:00,
2013-11-22 17:42:00,29.0,29.0,-100.00,NNE,12,2.0,8.0,99,0.00,,,0.27,8.000000,,2013-11-23 00:42:00,
2013-11-22 17:52:00,29.0,29.0,-100.00,NNE,12,2.0,8.0,99,0.00,,,0.27,8.000000,,2013-11-23 00:52:00,
2013-11-22 18:02:00,29.0,29.0,-100.00,NNE,12,2.0,8.0,99,0.00,,,0.27,8.000000,,2013-11-23 01:02:00,
2013-11-22 18:11:00,29.0,29.0,-100.00,NNE,12,2.0,8.0,99,0.00,,,0.27,8.000000,,2013-11-23 01:11:00,
2013-11-22 18:42:00,28.0,28.0,-100.00,East,81,1.0,9.0,98,0.00,,,0.25,0.000000,,2013-11-23 01:42:00,
2013-11-22 18:52:00,28.0,28.0,-100.00,East,81,1.0,9.0,98,0.00,,,0.25,0.000000,,2013-11-23 01:52:00,
2013-11-22 19:02:00,28.0,28.0,-100.00,East,81,1.0,9.0,98,0.00,,,0.25,0.000000,,2013-11-23 02:02:00,
2013-11-22 19:11:00,28.0,28.0,-100.00,East,81,1.0,9.0,98,0.00,,,0.25,0.000000,,2013-11-23 02:11:00,
2013-11-22 19:42:00,28.0,28.0,-100.00,ENE,60,4.0,9.0,98,0.00,,,0.25,0.000000,,2013-11-23 02:42:00,
2013-11-22 19:53:00,28.0,28.0,-100.00,ENE,60,4.0,9.0,98,0.00,,,0.25,0.000000,,2013-11-23 02:53:00,
2013-11-22 20:02:00,28.0,28.0,-100.00,ENE,60,4.0,9.0,98,0.00,,,0.25,0.000000,,2013-11-23 03:02:00,
2013-11-22 20:11:00,28.0,28.0,-100.00,ENE,60,4.0,9.0,98,0.00,,,0.25,0.000000,,2013-11-23 03:11:00,
2013-11-22 20:43:00,28.0,28.0,-100.00,NE,46,3.0,9.0,98,0.00,,,0.21,0.000000,,2013-11-23 03:43:00,
2013-11-22 20:53:00,28.0,28.0,-100.00,NE,46,3.0,9.0,98,0.00,,,0.21,0.000000,,2013-11-23 03:53:00,
2013-11-22 21:02:00,28.0,28.0,-100.00,NE,46,3.0,9.0,98,0.00,,,0.21,0.000000,,2013-11-23 04:02:00,
2013-11-22 21:13:00,28.0,28.0,-100.00,NE,46,3.0,9.0,98,0.00,,,0.21,0.000000,,2013-11-23 04:13:00,
2013-11-22 21:43:00,28.0,28.0,-100.00,NE,41,2.0,6.0,98,0.00,,,0.19,0.000000,,2013-11-23 04:43:00,
2013-11-22 21:53:00,28.0,28.0,-100.00,NE,41,2.0,6.0,98,0.00,,,0.19,0.000000,,2013-11-23 04:53:00,
2013-11-22 22:03:00,28.0,28.0,-100.00,NE,41,2.0,6.0,98,0.00,,,0.19,0.000000,,2013-11-23 05:03:00,
2013-11-22 22:12:00,28.0,28.0,-100.00,NE,41,2.0,6.0,98,0.00,,,0.19,0.000000,,2013-11-23 05:12:00,
2013-11-22 22:43:00,28.0,28.0,-100.00,NE,51,4.0,7.0,98,0.00,,,0.17,0.000000,,2013-11-23 05:43:00,
2013-11-22 22:53:00,28.0,28.0,-100.00,NE,51,4.0,7.0,98,0.00,,,0.17,0.000000,,2013-11-23 05:53:00,
2013-11-22 23:02:00,28.0,28.0,-100.00,NE,51,4.0,7.0,98,0.00,,,0.17,0.000000,,2013-11-23 06:02:00,
2013-11-22 23:12:00,28.0,28.0,-100.00,NE,51,4.0,7.0,98,0.00,,,0.17,0.000000,,2013-11-23 06:12:00,
2013-11-22 23:42:00,28.0,28.0,-100.00,NNE,29,1.0,6.0,98,0.00,,,0.14,0.000000,,2013-11-23 06:42:00,
2013-11-22 23:52:00,28.0,28.0,-100.00,NNE,29,1.0,6.0,98,0.00,,,0.14,0.000000,,2013-11-23 06:52:00,